createdAt,value
2022-09-26T00:01:42.845Z,3.00
2022-09-26T00:04:21.189Z,3.40
2022-09-26T00:06:52.059Z,4.00
2022-09-26T00:09:20.948Z,3.07
2022-09-26T00:11:49.659Z,3.83
2022-09-26T00:14:20.692Z,3.07
2022-09-26T00:16:49.403Z,3.07
2022-09-26T00:19:19.565Z,3.30
2022-09-26T00:21:48.068Z,2.83
2022-09-26T00:24:16.548Z,2.87
2022-09-26T00:26:44.960Z,2.70
2022-09-26T00:29:14.503Z,2.37
2022-09-26T00:31:45.145Z,3.23
2022-09-26T00:34:14.117Z,2.53
2022-09-26T00:36:44.297Z,3.30
2022-09-26T00:39:14.649Z,3.47
2022-09-26T00:41:43.567Z,3.00
2022-09-26T00:44:45.889Z,3.17
2022-09-26T00:47:36.351Z,2.80
2022-09-26T00:50:13.242Z,2.30
2022-09-26T00:52:50.392Z,2.40
2022-09-26T00:55:21.395Z,3.03
2022-09-26T00:57:55.119Z,2.63
2022-09-26T01:00:23.893Z,2.80
2022-09-26T01:02:54.876Z,2.20
2022-09-26T01:05:24.647Z,2.03
2022-09-26T01:07:56.777Z,2.37
2022-09-26T01:10:28.167Z,2.43
2022-09-26T01:12:57.915Z,2.10
2022-09-26T01:15:26.627Z,2.37
2022-09-26T01:17:55.148Z,2.40
2022-09-26T01:20:30.473Z,2.20
2022-09-26T01:23:41.718Z,2.37
2022-09-26T01:26:35.324Z,2.40
2022-09-26T01:29:24.680Z,2.53
2022-09-26T01:32:22.070Z,2.30
2022-09-26T01:34:59.144Z,3.00
2022-09-26T01:37:34.119Z,2.60
2022-09-26T01:40:10.091Z,2.50
2022-09-26T01:42:46.955Z,3.07
2022-09-26T01:45:20.632Z,3.30
2022-09-26T01:47:56.584Z,3.50
2022-09-26T01:50:30.772Z,2.87
2022-09-26T01:53:04.174Z,3.33
2022-09-26T01:55:38.360Z,3.33
2022-09-26T01:58:10.351Z,3.07
2022-09-26T02:00:40.860Z,2.50
2022-09-26T02:03:14.427Z,3.00
2022-09-26T02:05:47.786Z,2.77
2022-09-26T02:08:19.472Z,2.80
2022-09-26T02:10:51.411Z,3.13
2022-09-26T02:13:26.434Z,3.07
2022-09-26T02:15:59.045Z,2.97
2022-09-26T02:18:32.644Z,3.30
2022-09-26T02:21:04.497Z,3.17
2022-09-26T02:23:32.873Z,3.13
2022-09-26T02:26:01.443Z,3.17
2022-09-26T02:28:29.918Z,3.63
2022-09-26T02:31:00.480Z,3.20
2022-09-26T02:33:31.925Z,3.33
2022-09-26T02:36:01.843Z,3.10
2022-09-26T02:38:33.519Z,3.20
2022-09-26T02:41:29.557Z,3.73
2022-09-26T02:44:13.545Z,3.83
2022-09-26T02:47:13.208Z,3.60
2022-09-26T02:50:10.416Z,3.93
2022-09-26T02:52:52.338Z,4.77
2022-09-26T02:55:38.661Z,3.93
2022-09-26T02:58:19.496Z,3.60
2022-09-26T03:00:59.222Z,3.83
2022-09-26T03:03:33.698Z,4.07
2022-09-26T03:06:07.553Z,3.70
2022-09-26T03:08:40.268Z,4.07
2022-09-26T03:11:12.394Z,3.63
2022-09-26T03:13:42.601Z,3.90
2022-09-26T03:16:12.358Z,4.23
2022-09-26T03:18:46.685Z,4.07
2022-09-26T03:21:16.585Z,4.30
2022-09-26T03:23:45.293Z,4.03
2022-09-26T03:26:18.250Z,3.87
2022-09-26T03:28:56.184Z,4.17
2022-09-26T03:31:26.751Z,4.57
2022-09-26T03:34:08.509Z,4.00
2022-09-26T03:36:40.958Z,3.07
2022-09-26T03:39:11.248Z,3.80
2022-09-26T03:41:48.540Z,3.23
2022-09-26T03:44:32.756Z,4.23
2022-09-26T03:47:23.810Z,4.00
2022-09-26T03:49:55.012Z,3.63
2022-09-26T03:52:25.881Z,3.57
2022-09-26T03:54:54.488Z,3.70
2022-09-26T03:57:22.987Z,3.83
2022-09-26T03:59:57.088Z,3.07
2022-09-26T04:03:32.376Z,4.07
2022-09-26T04:06:00.948Z,4.10
2022-09-26T04:08:31.232Z,3.80
2022-09-26T04:11:04.018Z,3.77
2022-09-26T04:13:50.708Z,4.53
2022-09-26T04:16:22.774Z,3.43
2022-09-26T04:18:58.096Z,4.13
2022-09-26T04:21:28.561Z,2.97
2022-09-26T04:23:58.341Z,3.33
2022-09-26T04:26:26.965Z,3.43
2022-09-26T04:28:58.658Z,3.73
2022-09-26T04:31:48.026Z,2.83
2022-09-26T04:34:26.252Z,3.00
2022-09-26T04:36:56.219Z,3.37
2022-09-26T04:39:26.267Z,3.30
2022-09-26T04:41:55.200Z,2.83
2022-09-26T04:44:23.779Z,2.53
2022-09-26T04:46:52.335Z,3.33
2022-09-26T04:49:23.976Z,1.90
2022-09-26T04:51:53.005Z,2.27
2022-09-26T04:54:21.403Z,2.43
2022-09-26T04:56:51.247Z,2.13
2022-09-26T04:59:19.814Z,2.53
2022-09-26T05:02:00.834Z,2.00
2022-09-26T05:04:37.902Z,2.70
2022-09-26T05:07:06.622Z,2.03
2022-09-26T05:09:36.261Z,2.10
2022-09-26T05:12:27.036Z,2.10
2022-09-26T05:14:56.574Z,2.20
2022-09-26T05:17:25.182Z,1.90
2022-09-26T05:19:56.923Z,2.10
2022-09-26T05:22:43.617Z,2.20
2022-09-26T05:25:29.719Z,2.20
2022-09-26T05:27:59.561Z,2.83
2022-09-26T05:30:32.168Z,1.93
2022-09-26T05:33:00.660Z,2.60
2022-09-26T05:35:29.087Z,1.83
2022-09-26T05:38:00.767Z,1.93
2022-09-26T05:40:47.613Z,2.23
2022-09-26T05:43:17.667Z,2.70
2022-09-26T05:45:49.249Z,2.37
2022-09-26T05:48:20.905Z,2.60
2022-09-26T05:50:51.340Z,2.17
2022-09-26T05:53:19.919Z,2.67
2022-09-26T05:55:53.118Z,2.73
2022-09-26T05:58:52.081Z,2.17
2022-09-26T06:01:40.748Z,2.40
2022-09-26T06:04:22.686Z,2.10
2022-09-26T06:07:20.529Z,2.43
2022-09-26T06:09:49.203Z,1.93
2022-09-26T06:12:38.100Z,2.10
2022-09-26T06:15:10.058Z,2.47
2022-09-26T06:17:38.929Z,1.90
2022-09-26T06:20:08.328Z,2.57
2022-09-26T06:22:42.029Z,2.17
2022-09-26T06:25:12.799Z,2.73
2022-09-26T06:27:42.462Z,2.30
2022-09-26T06:30:13.019Z,2.00
2022-09-26T06:32:42.431Z,1.80
2022-09-26T06:35:29.628Z,2.50
2022-09-26T06:38:11.745Z,2.00
2022-09-26T06:40:40.378Z,2.00
2022-09-26T06:43:09.260Z,2.20
2022-09-26T06:45:57.429Z,1.77
2022-09-26T06:48:38.025Z,2.30
2022-09-26T06:51:26.684Z,2.20
2022-09-26T06:53:55.100Z,1.80
2022-09-26T06:56:28.091Z,1.53
2022-09-26T06:58:57.717Z,1.97
2022-09-26T07:01:35.122Z,1.90
2022-09-26T07:04:27.226Z,2.30
2022-09-26T07:07:16.788Z,1.80
2022-09-26T07:09:45.346Z,2.13
2022-09-26T07:12:37.629Z,2.27
2022-09-26T07:15:07.340Z,2.10
2022-09-26T07:17:37.369Z,1.93
2022-09-26T07:20:11.646Z,1.70
2022-09-26T07:23:02.657Z,1.80
2022-09-26T07:25:33.182Z,2.00
2022-09-26T07:28:03.184Z,2.30
2022-09-26T07:30:50.876Z,2.03
2022-09-26T07:33:40.142Z,2.27
2022-09-26T07:36:10.704Z,2.30
2022-09-26T07:38:39.148Z,2.63
2022-09-26T07:41:10.730Z,2.73
2022-09-26T07:46:45.148Z,2.33
2022-09-26T07:49:32.808Z,2.50
2022-09-26T07:52:15.550Z,2.17
2022-09-26T07:55:18.698Z,2.33
2022-09-26T07:57:52.938Z,2.03
2022-09-26T08:00:36.195Z,2.33
2022-09-26T08:03:20.642Z,2.50
2022-09-26T08:05:51.348Z,2.60
2022-09-26T08:08:19.757Z,2.13
2022-09-26T08:11:04.016Z,1.83
2022-09-26T08:13:49.132Z,2.30
2022-09-26T08:16:23.492Z,1.90
2022-09-26T08:18:56.001Z,2.10
2022-09-26T08:21:27.594Z,2.00
2022-09-26T08:23:58.847Z,2.13
2022-09-26T08:26:33.049Z,1.97
2022-09-26T08:29:24.521Z,2.17
2022-09-26T08:31:55.557Z,2.60
2022-09-26T08:34:25.685Z,2.17
2022-09-26T08:37:31.231Z,1.97
2022-09-26T08:40:33.716Z,1.93
2022-09-26T08:43:40.892Z,2.70
2022-09-26T08:46:42.376Z,1.97
2022-09-26T08:49:50.503Z,2.00
2022-09-26T08:52:29.218Z,1.80
2022-09-26T08:55:02.533Z,2.23
2022-09-26T08:57:39.095Z,2.77
2022-09-26T09:00:24.946Z,2.80
2022-09-26T09:03:19.045Z,2.47
2022-09-26T09:05:50.721Z,2.93
2022-09-26T09:08:23.725Z,2.33
2022-09-26T09:11:22.268Z,2.27
2022-09-26T09:14:07.203Z,2.47
2022-09-26T09:17:17.839Z,2.43
2022-09-26T09:20:04.907Z,2.70
2022-09-26T09:23:09.034Z,2.40
2022-09-26T09:25:48.272Z,3.23
2022-09-26T09:28:33.223Z,2.67
2022-09-26T09:31:05.325Z,2.30
2022-09-26T09:34:00.339Z,2.63
2022-09-26T09:36:42.714Z,2.93
2022-09-26T09:39:39.247Z,2.80
2022-09-26T09:42:22.642Z,2.60
2022-09-26T09:44:56.790Z,3.60
2022-09-26T09:47:29.025Z,4.20
2022-09-26T09:50:00.009Z,2.57
2022-09-26T09:52:50.821Z,3.30
2022-09-26T09:55:35.184Z,2.97
2022-09-26T09:58:20.422Z,2.93
2022-09-26T10:00:59.839Z,2.30
2022-09-26T10:03:41.628Z,2.40
2022-09-26T10:06:13.654Z,2.50
2022-09-26T10:09:38.890Z,2.73
2022-09-26T10:12:40.858Z,2.10
2022-09-26T10:15:27.904Z,3.20
2022-09-26T10:18:25.310Z,2.53
2022-09-26T10:21:08.920Z,2.57
2022-09-26T10:23:40.221Z,2.33
2022-09-26T10:26:15.104Z,2.40
2022-09-26T10:28:48.025Z,2.10
2022-09-26T10:31:25.039Z,2.07
2022-09-26T10:34:24.863Z,2.90
2022-09-26T10:36:53.883Z,3.40
2022-09-26T10:39:42.366Z,3.40
2022-09-26T10:42:16.832Z,3.53
2022-09-26T10:44:47.761Z,2.93
2022-09-26T10:47:26.181Z,3.90
2022-09-26T10:50:18.500Z,3.33
2022-09-26T10:53:08.846Z,3.60
2022-09-26T10:55:42.973Z,2.73
2022-09-26T10:58:18.744Z,3.20
2022-09-26T11:00:50.527Z,3.07
2022-09-26T11:03:33.402Z,3.40
2022-09-26T11:06:45.077Z,2.63
2022-09-26T11:09:21.797Z,3.20
2022-09-26T11:12:25.302Z,3.23
2022-09-26T11:14:57.900Z,2.93
2022-09-26T11:17:46.837Z,3.00
2022-09-26T11:20:27.514Z,3.33
2022-09-26T11:23:06.704Z,3.10
2022-09-26T11:25:55.617Z,2.93
2022-09-26T11:28:31.376Z,2.80
2022-09-26T11:31:23.925Z,2.40
2022-09-26T11:34:09.353Z,2.60
2022-09-26T11:37:14.616Z,2.80
2022-09-26T11:39:57.190Z,2.90
2022-09-26T11:42:37.333Z,2.00
2022-09-26T11:45:15.255Z,3.07
2022-09-26T11:48:28.496Z,2.40
2022-09-26T11:51:34.513Z,2.63
2022-09-26T11:54:23.482Z,2.40
2022-09-26T11:57:00.773Z,2.43
2022-09-26T11:59:46.530Z,2.70
2022-09-26T12:02:35.863Z,3.07
2022-09-26T12:05:17.428Z,2.80
2022-09-26T12:07:53.336Z,2.50
2022-09-26T12:10:33.574Z,3.50
2022-09-26T12:13:20.890Z,3.10
2022-09-26T12:15:59.137Z,3.03
2022-09-26T12:18:36.718Z,3.47
2022-09-26T12:21:16.580Z,3.40
2022-09-26T12:23:51.070Z,2.80
2022-09-26T12:26:24.205Z,3.07
2022-09-26T12:29:23.476Z,3.57
2022-09-26T12:32:14.515Z,3.30
2022-09-26T12:35:04.392Z,3.10
2022-09-26T12:37:53.920Z,3.50
2022-09-26T12:40:36.102Z,4.07
2022-09-26T12:43:29.863Z,5.90
2022-09-26T12:46:15.899Z,4.80
2022-09-26T12:48:54.772Z,3.90
2022-09-26T12:51:30.895Z,4.87
2022-09-26T12:54:19.621Z,4.50
2022-09-26T12:56:53.136Z,3.60
2022-09-26T12:59:38.576Z,2.90
2022-09-26T13:02:28.659Z,2.80
2022-09-26T13:05:19.620Z,3.07
2022-09-26T13:07:57.291Z,2.80
2022-09-26T13:10:34.712Z,2.70
2022-09-26T13:13:28.973Z,2.43
2022-09-26T13:16:14.119Z,2.93
2022-09-26T13:18:47.465Z,2.60
2022-09-26T13:21:21.145Z,2.37
2022-09-26T13:23:57.163Z,2.30
2022-09-26T13:26:30.476Z,1.93
2022-09-26T13:29:17.301Z,2.10
2022-09-26T13:31:55.419Z,2.53
2022-09-26T13:34:31.178Z,2.40
2022-09-26T13:37:00.634Z,1.70
2022-09-26T13:39:35.732Z,1.77
2022-09-26T13:42:10.289Z,2.33
2022-09-26T13:44:58.336Z,2.70
2022-09-26T13:47:39.201Z,2.10
2022-09-26T13:50:23.264Z,2.33
2022-09-26T13:53:05.867Z,2.90
2022-09-26T13:55:35.908Z,2.77
2022-09-26T13:58:07.751Z,2.70
2022-09-26T14:00:53.049Z,3.40
2022-09-26T14:03:42.707Z,2.60
2022-09-26T14:06:28.902Z,3.00
2022-09-26T14:09:24.839Z,3.60
2022-09-26T14:12:22.649Z,3.83
2022-09-26T14:15:16.612Z,2.90
2022-09-26T14:18:06.743Z,2.40
2022-09-26T14:20:54.167Z,2.20
2022-09-26T14:23:41.275Z,2.87
2022-09-26T14:26:12.175Z,2.20
2022-09-26T14:28:50.766Z,2.60
2022-09-26T14:31:35.053Z,2.83
2022-09-26T14:34:21.113Z,2.40
2022-09-26T14:36:51.684Z,2.00
2022-09-26T14:39:33.268Z,2.33
2022-09-26T14:42:18.527Z,2.50
2022-09-26T14:44:56.106Z,2.40
2022-09-26T14:47:26.182Z,2.83
2022-09-26T14:49:59.903Z,2.97
2022-09-26T14:52:28.795Z,3.17
2022-09-26T14:55:01.186Z,3.20
2022-09-26T14:57:32.854Z,2.73
2022-09-26T15:00:03.517Z,3.43
2022-09-26T15:02:40.031Z,2.93
2022-09-26T15:05:24.594Z,3.20
2022-09-26T15:07:54.900Z,4.00
2022-09-26T15:10:41.518Z,3.80
2022-09-26T15:13:23.784Z,2.93
2022-09-26T15:15:59.433Z,3.73
2022-09-26T15:18:38.257Z,3.97
2022-09-26T15:21:26.370Z,3.43
2022-09-26T15:23:56.895Z,4.47
2022-09-26T15:26:28.220Z,4.43
2022-09-26T15:28:57.582Z,4.70
2022-09-26T15:31:29.646Z,5.50
2022-09-26T15:34:04.344Z,4.57
2022-09-26T15:36:35.804Z,4.33
2022-09-26T15:39:36.519Z,4.70
2022-09-26T15:42:41.048Z,4.93
2022-09-26T15:45:25.621Z,4.53
2022-09-26T15:47:56.326Z,5.13
2022-09-26T15:50:29.163Z,7.17
2022-09-26T15:53:02.247Z,5.10
2022-09-26T15:55:34.731Z,5.90
2022-09-26T15:58:05.745Z,5.50
2022-09-26T16:00:41.037Z,5.80
2022-09-26T16:03:40.119Z,4.70
2022-09-26T16:06:17.731Z,6.50
2022-09-26T16:08:54.003Z,5.77
2022-09-26T16:11:23.089Z,4.50
2022-09-26T16:13:52.884Z,4.63
2022-09-26T16:16:26.809Z,4.43
2022-09-26T16:18:59.593Z,5.90
2022-09-26T16:21:31.979Z,5.47
2022-09-26T16:24:02.212Z,4.97
2022-09-26T16:26:40.213Z,5.87
2022-09-26T16:29:09.693Z,4.73
2022-09-26T16:31:45.472Z,5.20
2022-09-26T16:34:23.593Z,5.77
2022-09-26T16:36:52.179Z,5.13
2022-09-26T16:39:23.950Z,6.13
2022-09-26T16:42:02.349Z,5.23
2022-09-26T16:44:36.372Z,4.00
2022-09-26T16:47:08.869Z,3.63
2022-09-26T16:49:46.020Z,3.47
2022-09-26T16:52:26.493Z,4.63
2022-09-26T16:54:56.017Z,5.07
2022-09-26T16:57:27.112Z,5.60
2022-09-26T17:00:18.736Z,4.63
2022-09-26T17:02:46.255Z,4.30
2022-09-26T17:05:18.684Z,4.60
2022-09-26T17:07:48.517Z,5.50
2022-09-26T17:10:18.178Z,4.30
2022-09-26T17:12:50.527Z,5.70
2022-09-26T17:15:24.516Z,5.00
2022-09-26T17:17:54.177Z,4.50
2022-09-26T17:20:24.356Z,4.73
2022-09-26T17:22:54.636Z,4.50
2022-09-26T17:25:24.874Z,4.07
2022-09-26T17:27:57.561Z,3.50
2022-09-26T17:30:26.189Z,3.90
2022-09-26T17:32:54.805Z,4.63
2022-09-26T17:35:27.004Z,4.67
2022-09-26T17:37:56.281Z,3.53
2022-09-26T17:40:26.919Z,3.07
2022-09-26T17:42:56.935Z,3.30
2022-09-26T17:45:29.620Z,3.43
2022-09-26T17:48:01.276Z,3.67
2022-09-26T17:50:33.336Z,3.70
2022-09-26T17:53:03.603Z,3.43
2022-09-26T17:55:33.414Z,4.47
2022-09-26T17:58:02.207Z,4.53
2022-09-26T18:00:36.022Z,4.80
2022-09-26T18:03:04.834Z,3.60
2022-09-26T18:05:37.746Z,3.37
2022-09-26T18:08:10.334Z,3.20
2022-09-26T18:10:43.102Z,3.37
2022-09-26T18:13:15.781Z,3.73
2022-09-26T18:15:44.207Z,4.03
2022-09-26T18:18:15.476Z,5.00
2022-09-26T18:20:46.133Z,3.50
2022-09-26T18:23:20.657Z,3.27
2022-09-26T18:25:52.694Z,3.23
2022-09-26T18:28:24.458Z,5.10
2022-09-26T18:30:58.173Z,3.83
2022-09-26T18:33:28.893Z,5.13
2022-09-26T18:35:59.348Z,5.03
2022-09-26T18:38:27.908Z,5.83
2022-09-26T18:40:58.466Z,5.80
2022-09-26T18:43:31.829Z,3.97
2022-09-26T18:46:00.607Z,2.97
2022-09-26T18:48:32.785Z,3.57
2022-09-26T18:51:03.317Z,3.20
2022-09-26T18:53:36.983Z,2.83
2022-09-26T18:56:24.613Z,3.43
2022-09-26T18:58:53.487Z,2.80
2022-09-26T19:01:29.830Z,2.50
2022-09-26T19:04:01.537Z,3.07
2022-09-26T19:06:35.500Z,2.87
2022-09-26T19:09:06.008Z,3.13
2022-09-26T19:11:35.161Z,2.20
2022-09-26T19:14:13.236Z,2.57
2022-09-26T19:16:42.035Z,2.47
2022-09-26T19:19:10.561Z,2.30
2022-09-26T19:21:42.354Z,3.10
2022-09-26T19:24:20.543Z,2.77
2022-09-26T19:26:52.503Z,1.97
2022-09-26T19:29:27.957Z,2.10
2022-09-26T19:31:56.859Z,2.10
2022-09-26T19:34:28.199Z,2.07
2022-09-26T19:37:03.099Z,2.27
2022-09-26T19:39:31.699Z,2.20
2022-09-26T19:42:00.152Z,1.97
2022-09-26T19:44:28.593Z,1.70
2022-09-26T19:46:59.680Z,1.73
2022-09-26T19:49:29.962Z,1.50
2022-09-26T19:52:00.907Z,2.63
2022-09-26T19:54:30.835Z,1.47
2022-09-26T19:56:59.415Z,2.10
2022-09-26T19:59:27.922Z,2.33
2022-09-26T20:01:56.437Z,1.97
2022-09-26T20:04:25.131Z,1.70
2022-09-26T20:06:53.533Z,1.50
2022-09-26T20:09:21.948Z,1.30
2022-09-26T20:11:51.755Z,1.50
2022-09-26T20:14:26.048Z,1.10
2022-09-26T20:16:58.452Z,1.37
2022-09-26T20:19:34.702Z,1.30
2022-09-26T20:22:05.992Z,1.90
2022-09-26T20:24:37.760Z,1.40
2022-09-26T20:27:15.271Z,1.23
2022-09-26T20:30:01.253Z,1.30
2022-09-26T20:32:29.948Z,1.10
2022-09-26T20:35:00.328Z,1.37
2022-09-26T20:37:31.139Z,0.83
2022-09-26T20:40:00.385Z,1.37
2022-09-26T20:42:35.058Z,1.03
2022-09-26T20:45:03.625Z,1.23
2022-09-26T20:47:32.677Z,0.90
2022-09-26T20:50:03.529Z,1.20
2022-09-26T20:52:31.981Z,1.73
2022-09-26T20:55:00.461Z,0.90
2022-09-26T20:57:30.241Z,1.23
2022-09-26T20:59:58.703Z,1.07
2022-09-26T21:02:29.956Z,1.07
2022-09-26T21:05:00.778Z,1.17
2022-09-26T21:07:31.779Z,0.73
2022-09-26T21:10:00.365Z,1.30
2022-09-26T21:12:30.143Z,1.20
2022-09-26T21:14:58.616Z,1.10
2022-09-26T21:17:29.210Z,1.20
2022-09-26T21:19:57.715Z,0.70
2022-09-26T21:22:46.109Z,1.50
2022-09-26T21:25:17.176Z,1.27
2022-09-26T21:27:48.789Z,0.70
2022-09-26T21:30:18.064Z,0.90
2022-09-26T21:32:50.924Z,1.23
2022-09-26T21:35:22.105Z,1.50
2022-09-26T21:37:53.762Z,1.10
2022-09-26T21:40:26.141Z,1.13
2022-09-26T21:43:00.069Z,1.20
2022-09-26T21:45:28.556Z,1.40
2022-09-26T21:47:58.456Z,2.23
2022-09-26T21:50:29.216Z,2.17
2022-09-26T21:53:04.067Z,1.40
2022-09-26T21:55:35.603Z,1.67
2022-09-26T21:58:10.834Z,1.40
2022-09-26T22:00:39.303Z,1.40
2022-09-26T22:03:07.783Z,2.13
2022-09-26T22:05:36.247Z,2.57
2022-09-26T22:08:04.672Z,1.63
2022-09-26T22:10:33.124Z,1.73
2022-09-26T22:13:01.599Z,1.70
2022-09-26T22:15:31.402Z,1.50
2022-09-26T22:17:59.795Z,2.00
2022-09-26T22:20:28.224Z,1.97
2022-09-26T22:22:56.718Z,1.60
2022-09-26T22:25:25.487Z,1.37
2022-09-26T22:27:54.171Z,2.93
2022-09-26T22:30:22.546Z,2.60
2022-09-26T22:32:52.292Z,1.93
2022-09-26T22:35:20.725Z,2.30
2022-09-26T22:37:50.157Z,1.20
2022-09-26T22:40:18.630Z,1.10
2022-09-26T22:42:47.261Z,1.63
2022-09-26T22:45:15.810Z,1.03
2022-09-26T22:47:44.245Z,1.10
2022-09-26T22:50:14.006Z,1.87
2022-09-26T22:52:42.490Z,0.93
2022-09-26T22:55:11.035Z,0.77
2022-09-26T22:57:39.448Z,1.43
2022-09-26T23:00:09.173Z,1.20
2022-09-26T23:02:38.057Z,0.93
2022-09-26T23:05:07.179Z,1.47
2022-09-26T23:07:36.963Z,0.80
2022-09-26T23:10:05.619Z,1.27
2022-09-26T23:12:34.063Z,1.23
2022-09-26T23:15:02.426Z,1.60
2022-09-26T23:17:32.952Z,4.27
2022-09-26T23:20:01.374Z,1.20
2022-09-26T23:22:29.865Z,0.73
2022-09-26T23:24:59.600Z,1.00
2022-09-26T23:27:28.006Z,0.50
2022-09-26T23:29:56.409Z,0.90
2022-09-26T23:32:24.832Z,1.03
2022-09-26T23:34:53.212Z,0.80
2022-09-26T23:37:21.694Z,0.83
2022-09-26T23:39:50.497Z,1.23
2022-09-26T23:42:20.226Z,1.00
2022-09-26T23:44:48.700Z,0.60
2022-09-26T23:47:17.045Z,1.13
2022-09-26T23:49:45.458Z,0.93
2022-09-26T23:52:13.885Z,0.67
2022-09-26T23:54:42.405Z,0.57
2022-09-26T23:57:10.887Z,0.53
2022-09-26T23:59:40.699Z,0.70
